createdAt,value
2023-04-23T00:02:59.032Z,1.63
2023-04-23T00:06:05.676Z,2.00
2023-04-23T00:09:08.610Z,1.50
2023-04-23T00:12:12.089Z,1.77
2023-04-23T00:15:16.376Z,1.63
2023-04-23T00:18:20.056Z,1.70
2023-04-23T00:21:24.152Z,1.40
2023-04-23T00:24:26.904Z,1.50
2023-04-23T00:27:29.500Z,1.65
2023-04-23T00:30:32.327Z,1.58
2023-04-23T00:33:34.976Z,1.67
2023-04-23T00:36:39.117Z,1.60
2023-04-23T00:39:41.840Z,1.30
2023-04-23T00:42:45.686Z,1.48
2023-04-23T00:45:48.909Z,1.47
2023-04-23T00:48:52.113Z,1.42
2023-04-23T00:51:56.209Z,1.70
2023-04-23T00:54:58.880Z,1.47
2023-04-23T01:01:30.244Z,1.40
2023-04-23T01:04:33.460Z,1.47
2023-04-23T01:07:38.093Z,1.30
2023-04-23T01:10:40.991Z,1.53
2023-04-23T01:13:44.204Z,1.63
2023-04-23T01:16:47.180Z,1.63
2023-04-23T01:19:49.762Z,1.35
2023-04-23T01:22:54.034Z,1.90
2023-04-23T01:25:57.640Z,1.27
2023-04-23T01:29:01.000Z,1.30
2023-04-23T01:32:04.087Z,1.70
2023-04-23T01:35:08.298Z,1.42
2023-04-23T01:38:12.972Z,1.70
2023-04-23T01:41:15.620Z,1.27
2023-04-23T01:44:18.224Z,1.73
2023-04-23T01:47:21.441Z,1.40
2023-04-23T01:50:26.172Z,1.40
2023-04-23T01:53:30.184Z,2.20
2023-04-23T01:56:35.055Z,1.53
2023-04-23T01:59:38.361Z,2.07
2023-04-23T02:02:42.382Z,2.65
2023-04-23T02:05:45.647Z,1.50
2023-04-23T02:08:49.800Z,1.35
2023-04-23T02:11:52.469Z,1.50
2023-04-23T02:14:55.293Z,1.63
2023-04-23T02:17:58.001Z,1.60
2023-04-23T02:21:01.926Z,1.60
2023-04-23T02:24:07.026Z,1.60
2023-04-23T02:27:09.593Z,1.50
2023-04-23T02:30:13.010Z,1.50
2023-04-23T02:33:15.580Z,1.63
2023-04-23T02:36:18.302Z,1.40
2023-04-23T02:39:22.260Z,1.80
2023-04-23T02:42:24.943Z,1.70
2023-04-23T02:45:27.638Z,1.55
2023-04-23T02:48:30.764Z,1.70
2023-04-23T02:51:33.695Z,2.00
2023-04-23T02:54:37.742Z,1.50
2023-04-23T02:57:40.979Z,1.53
2023-04-23T03:00:43.608Z,1.40
2023-04-23T03:03:46.361Z,1.30
2023-04-23T03:06:49.082Z,1.30
2023-04-23T03:09:53.100Z,1.15
2023-04-23T03:12:56.425Z,1.13
2023-04-23T03:15:58.960Z,0.85
2023-04-23T03:19:02.028Z,1.10
2023-04-23T03:22:05.775Z,1.10
2023-04-23T03:25:10.157Z,1.03
2023-04-23T03:28:12.788Z,1.30
2023-04-23T03:31:15.326Z,1.10
2023-04-23T03:34:17.832Z,0.83
2023-04-23T03:37:20.311Z,1.10
2023-04-23T03:40:24.283Z,1.40
2023-04-23T03:43:27.019Z,0.90
2023-04-23T03:46:29.722Z,1.10
2023-04-23T03:49:32.353Z,1.17
2023-04-23T03:52:35.209Z,1.10
2023-04-23T03:55:39.120Z,1.20
2023-04-23T03:58:41.693Z,1.27
2023-04-23T04:01:44.314Z,1.00
2023-04-23T04:04:49.654Z,0.88
2023-04-23T04:07:52.375Z,1.03
2023-04-23T04:10:57.034Z,0.80
2023-04-23T04:13:59.598Z,1.20
2023-04-23T04:17:02.152Z,1.30
2023-04-23T04:20:06.778Z,1.50
2023-04-23T04:23:09.275Z,1.13
2023-04-23T04:26:14.794Z,1.20
2023-04-23T04:29:17.283Z,1.60
2023-04-23T04:32:19.817Z,1.43
2023-04-23T04:35:22.579Z,1.23
2023-04-23T04:38:25.110Z,1.13
2023-04-23T04:41:29.031Z,0.93
2023-04-23T04:44:32.224Z,0.90
2023-04-23T04:47:34.873Z,1.15
2023-04-23T04:50:37.621Z,1.25
2023-04-23T04:53:40.194Z,1.00
2023-04-23T04:56:44.036Z,1.10
2023-04-23T04:59:46.929Z,1.20
2023-04-23T05:02:49.988Z,1.10
2023-04-23T05:05:54.997Z,0.95
2023-04-23T05:08:57.707Z,1.00
2023-04-23T05:12:01.922Z,1.30
2023-04-23T05:15:05.393Z,1.40
2023-04-23T05:21:11.507Z,0.95
2023-04-23T05:24:13.979Z,1.33
2023-04-23T05:27:17.907Z,1.10
2023-04-23T05:30:20.498Z,1.03
2023-04-23T05:33:23.033Z,0.63
2023-04-23T05:36:25.903Z,0.97
2023-04-23T05:39:28.436Z,0.70
2023-04-23T05:42:32.295Z,0.87
2023-04-23T05:45:35.028Z,0.60
2023-04-23T05:48:37.589Z,0.90
2023-04-23T05:51:40.259Z,0.50
2023-04-23T05:54:43.070Z,0.60
2023-04-23T05:57:47.504Z,0.60
2023-04-23T06:00:50.570Z,0.90
2023-04-23T06:03:53.325Z,0.63
2023-04-23T06:06:56.029Z,0.45
2023-04-23T06:09:58.558Z,0.70
2023-04-23T06:13:02.465Z,0.50
2023-04-23T06:16:05.068Z,0.60
2023-04-23T06:19:07.622Z,0.60
2023-04-23T06:22:10.492Z,0.82
2023-04-23T06:25:12.975Z,0.70
2023-04-23T06:28:17.110Z,0.60
2023-04-23T06:31:20.196Z,0.70
2023-04-23T06:34:22.870Z,0.60
2023-04-23T06:37:27.514Z,0.68
2023-04-23T06:40:32.346Z,1.53
2023-04-23T06:43:36.748Z,0.60
2023-04-23T06:46:39.428Z,0.50
2023-04-23T06:49:42.028Z,0.80
2023-04-23T06:52:44.691Z,0.95
2023-04-23T06:55:47.218Z,0.60
2023-04-23T06:58:51.502Z,0.50
2023-04-23T07:01:54.179Z,0.70
2023-04-23T07:04:56.720Z,0.80
2023-04-23T07:07:59.358Z,0.40
2023-04-23T07:11:02.831Z,0.57
2023-04-23T07:14:06.898Z,0.40
2023-04-23T07:17:10.993Z,0.50
2023-04-23T07:20:13.627Z,0.60
2023-04-23T07:23:16.346Z,0.50
2023-04-23T07:26:18.949Z,0.28
2023-04-23T07:29:23.132Z,0.38
2023-04-23T07:32:28.373Z,0.50
2023-04-23T07:35:31.466Z,0.50
2023-04-23T07:38:34.028Z,0.75
2023-04-23T07:41:37.469Z,0.57
2023-04-23T07:44:41.982Z,0.50
2023-04-23T07:47:46.393Z,0.40
2023-04-23T07:50:49.175Z,0.37
2023-04-23T07:53:54.202Z,0.60
2023-04-23T07:56:57.393Z,0.50
2023-04-23T08:00:01.546Z,0.70
2023-04-23T08:03:04.379Z,0.40
2023-04-23T08:06:07.534Z,0.80
2023-04-23T08:09:10.223Z,0.50
2023-04-23T08:12:12.791Z,1.10
2023-04-23T08:15:16.916Z,0.50
2023-04-23T08:18:19.463Z,0.60
2023-04-23T08:21:22.454Z,0.50
2023-04-23T08:24:24.989Z,0.80
2023-04-23T08:27:27.873Z,0.88
2023-04-23T08:30:31.867Z,0.60
2023-04-23T08:33:34.393Z,0.90
2023-04-23T08:36:37.457Z,0.75
2023-04-23T08:39:40.783Z,0.73
2023-04-23T08:42:44.881Z,0.63
2023-04-23T08:45:49.992Z,0.70
2023-04-23T08:48:53.649Z,0.67
2023-04-23T08:51:57.410Z,0.90
2023-04-23T08:55:02.664Z,0.70
2023-04-23T08:58:07.872Z,0.67
2023-04-23T09:01:12.193Z,0.77
2023-04-23T09:04:16.892Z,0.60
2023-04-23T09:07:19.798Z,0.70
2023-04-23T09:10:22.624Z,0.80
2023-04-23T09:13:25.700Z,0.80
2023-04-23T09:16:29.800Z,0.70
2023-04-23T09:19:32.604Z,0.77
2023-04-23T09:22:44.356Z,0.90
2023-04-23T09:25:48.863Z,1.00
2023-04-23T09:28:52.373Z,0.77
2023-04-23T09:31:57.513Z,0.80
2023-04-23T09:35:00.183Z,0.90
2023-04-23T09:38:06.055Z,0.98
2023-04-23T09:41:22.637Z,0.40
2023-04-23T09:44:26.484Z,0.70
2023-04-23T09:47:33.333Z,0.50
2023-04-23T09:50:38.352Z,0.57
2023-04-23T09:53:42.759Z,0.60
2023-04-23T09:56:46.358Z,0.40
2023-04-23T09:59:53.070Z,0.63
2023-04-23T10:03:05.017Z,0.60
2023-04-23T10:06:17.280Z,0.60
2023-04-23T10:09:29.879Z,0.40
2023-04-23T10:12:52.266Z,0.50
2023-04-23T10:15:57.822Z,0.50
2023-04-23T10:19:03.645Z,0.50
2023-04-23T10:22:18.609Z,0.50
2023-04-23T10:25:22.451Z,0.63
2023-04-23T10:28:29.214Z,0.60
2023-04-23T10:31:33.986Z,0.57
2023-04-23T10:34:38.320Z,0.40
2023-04-23T10:37:41.612Z,0.50
2023-04-23T10:40:46.643Z,0.40
2023-04-23T10:43:49.287Z,0.50
2023-04-23T10:46:53.751Z,0.70
2023-04-23T10:49:57.927Z,0.40
2023-04-23T10:53:00.579Z,0.50
2023-04-23T10:56:07.669Z,0.30
2023-04-23T10:59:19.530Z,0.50
2023-04-23T11:02:24.924Z,0.60
2023-04-23T11:05:29.370Z,0.63
2023-04-23T11:08:33.074Z,0.50
2023-04-23T11:11:40.839Z,0.37
2023-04-23T11:14:48.089Z,0.43
2023-04-23T11:18:00.922Z,0.50
2023-04-23T11:21:07.175Z,0.40
2023-04-23T11:24:09.982Z,0.57
2023-04-23T11:27:14.069Z,0.55
2023-04-23T11:30:18.419Z,0.40
2023-04-23T11:33:21.252Z,0.47
2023-04-23T11:36:25.952Z,0.50
2023-04-23T11:39:28.646Z,0.47
2023-04-23T11:42:31.539Z,0.30
2023-04-23T11:45:34.156Z,0.45
2023-04-23T11:48:36.884Z,0.68
2023-04-23T11:51:46.528Z,0.40
2023-04-23T11:54:49.119Z,0.30
2023-04-23T11:57:53.499Z,0.75
2023-04-23T12:00:59.228Z,0.47
2023-04-23T12:04:02.075Z,0.60
2023-04-23T12:07:19.306Z,0.70
2023-04-23T12:10:26.120Z,0.50
2023-04-23T12:13:31.323Z,0.50
2023-04-23T12:16:38.743Z,0.43
2023-04-23T12:19:44.705Z,0.80
2023-04-23T12:22:49.207Z,0.40
2023-04-23T12:25:54.516Z,0.60
2023-04-23T12:29:00.227Z,0.40
2023-04-23T12:32:03.490Z,0.60
2023-04-23T12:35:07.182Z,0.70
2023-04-23T12:38:23.558Z,0.40
2023-04-23T12:41:26.299Z,0.40
2023-04-23T12:44:29.441Z,0.50
2023-04-23T12:47:32.172Z,0.60
2023-04-23T12:50:35.097Z,0.52
2023-04-23T12:56:41.889Z,0.60
2023-04-23T12:59:44.874Z,0.65
2023-04-23T13:02:47.929Z,0.37
2023-04-23T13:12:00.160Z,0.57
2023-04-23T13:15:03.453Z,0.60
2023-04-23T13:18:06.873Z,0.60
2023-04-23T13:21:11.016Z,0.60
2023-04-23T13:24:15.021Z,0.60
2023-04-23T13:27:17.852Z,0.50
2023-04-23T13:30:20.540Z,0.40
2023-04-23T13:33:23.153Z,0.50
2023-04-23T13:36:26.348Z,0.60
2023-04-23T13:39:30.892Z,0.50
2023-04-23T13:42:34.260Z,0.40
2023-04-23T13:45:36.911Z,0.32
2023-04-23T13:48:39.546Z,0.40
2023-04-23T13:54:47.784Z,0.40
2023-04-23T13:57:50.638Z,0.70
2023-04-23T14:00:53.920Z,0.60
2023-04-23T14:03:57.107Z,0.50
2023-04-23T14:06:59.754Z,0.43
2023-04-23T14:10:04.371Z,0.30
2023-04-23T14:13:07.096Z,0.50
2023-04-23T14:16:09.891Z,0.30
2023-04-23T14:19:12.598Z,0.77
2023-04-23T14:22:15.215Z,0.60
2023-04-23T14:28:31.080Z,0.70
2023-04-23T14:31:33.990Z,0.50
2023-04-23T14:34:36.824Z,1.08
2023-04-23T14:37:43.057Z,0.40
2023-04-23T14:40:47.056Z,0.50
2023-04-23T14:43:49.713Z,0.70
2023-04-23T14:46:52.456Z,0.98
2023-04-23T14:49:57.487Z,0.50
2023-04-23T14:53:00.191Z,0.70
2023-04-23T14:59:08.198Z,0.50
2023-04-23T15:02:12.042Z,0.50
2023-04-23T15:05:15.875Z,0.83
2023-04-23T15:08:18.519Z,0.70
2023-04-23T15:11:22.590Z,0.40
2023-04-23T15:14:27.060Z,0.63
2023-04-23T15:17:29.829Z,0.70
2023-04-23T15:20:32.546Z,0.40
2023-04-23T15:23:35.186Z,0.70
2023-04-23T15:26:39.335Z,1.13
2023-04-23T15:29:42.315Z,0.37
2023-04-23T15:32:45.085Z,0.87
2023-04-23T15:35:48.435Z,0.70
2023-04-23T15:38:51.177Z,0.50
2023-04-23T15:41:55.195Z,0.93
2023-04-23T15:44:57.775Z,1.00
2023-04-23T15:48:00.630Z,0.65
2023-04-23T15:51:03.401Z,0.60
2023-04-23T15:54:08.231Z,0.60
2023-04-23T15:57:13.087Z,0.53
2023-04-23T16:00:16.882Z,0.90
2023-04-23T16:03:19.891Z,0.60
2023-04-23T16:06:22.650Z,0.65
2023-04-23T16:09:25.221Z,0.63
2023-04-23T16:12:29.363Z,0.45
2023-04-23T16:15:31.998Z,0.80
2023-04-23T16:18:34.734Z,0.63
2023-04-23T16:21:37.277Z,0.65
2023-04-23T16:24:39.834Z,0.70
2023-04-23T16:27:43.967Z,0.75
2023-04-23T16:30:46.576Z,0.70
2023-04-23T16:33:49.165Z,0.70
2023-04-23T16:36:51.622Z,0.80
2023-04-23T16:39:54.241Z,0.85
2023-04-23T16:42:58.130Z,0.93
2023-04-23T16:46:00.662Z,0.90
2023-04-23T16:49:03.430Z,1.05
2023-04-23T16:52:05.930Z,1.20
2023-04-23T16:55:09.252Z,1.23
2023-04-23T16:58:13.096Z,1.15
2023-04-23T17:01:16.500Z,1.23
2023-04-23T17:07:21.837Z,1.10
2023-04-23T17:10:24.521Z,1.40
2023-04-23T17:13:28.359Z,1.45
2023-04-23T17:16:31.043Z,1.30
2023-04-23T17:19:34.589Z,0.77
2023-04-23T17:22:37.200Z,1.20
2023-04-23T17:25:39.707Z,0.82
2023-04-23T17:28:43.650Z,1.47
2023-04-23T17:31:46.592Z,1.33
2023-04-23T17:34:53.912Z,1.00
2023-04-23T17:38:02.562Z,1.20
2023-04-23T17:41:05.705Z,1.00
2023-04-23T17:44:09.586Z,1.20
2023-04-23T17:47:14.024Z,1.00
2023-04-23T17:50:17.154Z,1.13
2023-04-23T17:53:19.677Z,1.08
2023-04-23T17:56:22.145Z,3.50
2023-04-23T17:59:26.068Z,0.90
2023-04-23T18:02:28.849Z,1.10
2023-04-23T18:05:31.819Z,1.30
2023-04-23T18:08:34.288Z,1.02
2023-04-23T18:15:05.966Z,1.53
2023-04-23T18:18:08.917Z,1.40
2023-04-23T18:21:13.367Z,1.17
2023-04-23T18:24:18.222Z,2.13
2023-04-23T18:27:20.914Z,1.60
2023-04-23T18:30:25.672Z,1.60
2023-04-23T18:33:32.702Z,1.20
2023-04-23T18:36:38.267Z,2.10
2023-04-23T18:39:41.476Z,10.17
2023-04-23T18:42:43.965Z,8.40
2023-04-23T18:45:47.955Z,4.77
2023-04-23T18:48:54.989Z,3.17
2023-04-23T18:51:57.995Z,4.17
2023-04-23T18:55:00.709Z,1.88
2023-04-23T18:58:03.240Z,1.98
2023-04-23T19:01:07.347Z,1.80
2023-04-23T19:04:10.225Z,1.60
2023-04-23T19:07:12.934Z,1.35
2023-04-23T19:10:16.434Z,2.23
2023-04-23T19:16:24.312Z,1.10
2023-04-23T19:19:30.846Z,1.57
2023-04-23T19:22:33.367Z,1.77
2023-04-23T19:25:36.114Z,1.70
2023-04-23T19:28:38.644Z,2.05
2023-04-23T19:31:42.479Z,2.27
2023-04-23T19:34:45.629Z,2.13
2023-04-23T19:37:48.659Z,1.63
2023-04-23T19:40:51.289Z,1.33
2023-04-23T19:43:53.903Z,1.10
2023-04-23T19:46:57.846Z,1.20
2023-04-23T19:50:00.404Z,0.70
2023-04-23T19:53:03.019Z,1.77
2023-04-23T19:56:08.382Z,1.08
2023-04-23T19:59:13.840Z,1.00
2023-04-23T20:02:18.843Z,0.93
2023-04-23T20:05:22.043Z,1.57
2023-04-23T20:08:29.677Z,0.80
2023-04-23T20:11:32.225Z,0.97
2023-04-23T20:14:34.850Z,1.37
2023-04-23T20:17:39.056Z,0.50
2023-04-23T20:20:42.688Z,0.70
2023-04-23T20:26:47.884Z,0.87
2023-04-23T20:29:50.497Z,0.63
2023-04-23T20:32:54.537Z,0.80
2023-04-23T20:35:58.770Z,0.83
2023-04-23T20:39:03.274Z,0.67
2023-04-23T20:42:07.043Z,0.60
2023-04-23T20:45:11.609Z,0.60
2023-04-23T20:48:15.508Z,0.50
2023-04-23T20:51:18.151Z,0.63
2023-04-23T20:54:20.782Z,0.40
2023-04-23T20:57:23.295Z,0.65
2023-04-23T21:00:27.856Z,0.70
2023-04-23T21:03:32.989Z,0.50
2023-04-23T21:06:35.956Z,0.90
2023-04-23T21:09:38.560Z,0.50
2023-04-23T21:12:43.465Z,0.50
2023-04-23T21:15:46.178Z,0.50
2023-04-23T21:18:51.062Z,1.00
2023-04-23T21:21:53.667Z,0.70
2023-04-23T21:24:56.576Z,0.63
2023-04-23T21:27:59.430Z,0.93
2023-04-23T21:31:06.962Z,0.60
2023-04-23T21:34:11.102Z,0.50
2023-04-23T21:37:13.627Z,0.50
2023-04-23T21:40:16.154Z,0.50
2023-04-23T21:43:18.776Z,0.50
2023-04-23T21:46:24.035Z,0.40
2023-04-23T21:49:27.984Z,0.60
2023-04-23T21:52:31.221Z,0.57
2023-04-23T21:55:33.792Z,0.70
2023-04-23T21:58:36.309Z,0.50
2023-04-23T22:01:38.840Z,0.50
2023-04-23T22:04:44.534Z,0.60
2023-04-23T22:07:47.632Z,0.50
2023-04-23T22:10:50.246Z,0.60
2023-04-23T22:13:52.769Z,0.60
2023-04-23T22:16:55.330Z,0.77
2023-04-23T22:19:59.282Z,0.40
2023-04-23T22:23:01.820Z,0.53
2023-04-23T22:26:04.409Z,0.70
2023-04-23T22:29:06.967Z,0.87
2023-04-23T22:32:09.563Z,0.53
2023-04-23T22:35:13.647Z,0.75
2023-04-23T22:38:16.567Z,0.57
2023-04-23T22:41:19.116Z,0.50
2023-04-23T22:44:21.670Z,0.60
2023-04-23T22:47:24.254Z,0.60
2023-04-23T22:50:29.535Z,0.70
2023-04-23T22:53:32.132Z,0.60
2023-04-23T22:56:34.661Z,0.83
2023-04-23T22:59:37.260Z,0.50
2023-04-23T23:02:40.060Z,0.47
2023-04-23T23:05:44.098Z,0.75
2023-04-23T23:08:46.608Z,0.57
2023-04-23T23:11:49.147Z,0.50
2023-04-23T23:14:51.725Z,0.60
2023-04-23T23:17:54.766Z,0.70
2023-04-23T23:20:58.833Z,0.40
2023-04-23T23:24:01.377Z,0.63
2023-04-23T23:27:04.008Z,0.70
2023-04-23T23:30:09.647Z,0.70
2023-04-23T23:33:12.326Z,0.60
2023-04-23T23:36:16.354Z,1.00
2023-04-23T23:39:20.618Z,0.73
2023-04-23T23:42:23.143Z,0.40
2023-04-23T23:45:25.931Z,0.90
2023-04-23T23:48:28.525Z,0.63
2023-04-23T23:51:32.542Z,0.50
2023-04-23T23:54:35.264Z,0.67
2023-04-23T23:57:37.794Z,0.85
